sensor_id;sensor_type;location;lat;lon;timestamp;P1;durP1;ratioP1;P2;durP2;ratioP2
84889;SDS011;75153;52.222;5.160;2024-03-22T00:01:44;37.57;;;19.80;;
84889;SDS011;75153;52.222;5.160;2024-03-22T00:04:10;36.33;;;19.42;;
84889;SDS011;75153;52.222;5.160;2024-03-22T00:06:36;34.87;;;19.93;;
84889;SDS011;75153;52.222;5.160;2024-03-22T00:09:01;39.47;;;19.90;;
84889;SDS011;75153;52.222;5.160;2024-03-22T00:11:27;35.53;;;18.67;;
84889;SDS011;75153;52.222;5.160;2024-03-22T00:13:52;39.90;;;20.60;;
84889;SDS011;75153;52.222;5.160;2024-03-22T00:16:18;31.97;;;18.17;;
84889;SDS011;75153;52.222;5.160;2024-03-22T00:18:43;36.27;;;18.97;;
84889;SDS011;75153;52.222;5.160;2024-03-22T00:21:08;41.83;;;21.90;;
84889;SDS011;75153;52.222;5.160;2024-03-22T00:23:34;40.80;;;20.50;;
84889;SDS011;75153;52.222;5.160;2024-03-22T00:25:59;35.20;;;18.88;;
84889;SDS011;75153;52.222;5.160;2024-03-22T00:28:27;34.97;;;18.23;;
84889;SDS011;75153;52.222;5.160;2024-03-22T00:30:52;45.90;;;21.92;;
84889;SDS011;75153;52.222;5.160;2024-03-22T00:33:17;44.47;;;22.65;;
84889;SDS011;75153;52.222;5.160;2024-03-22T00:35:43;38.57;;;19.97;;
84889;SDS011;75153;52.222;5.160;2024-03-22T00:38:08;37.47;;;18.53;;
84889;SDS011;75153;52.222;5.160;2024-03-22T00:40:33;34.83;;;17.50;;
84889;SDS011;75153;52.222;5.160;2024-03-22T00:42:59;36.70;;;18.63;;
84889;SDS011;75153;52.222;5.160;2024-03-22T00:45:24;37.60;;;19.47;;
84889;SDS011;75153;52.222;5.160;2024-03-22T00:47:50;40.92;;;20.35;;
84889;SDS011;75153;52.222;5.160;2024-03-22T00:50:15;41.53;;;20.63;;
84889;SDS011;75153;52.222;5.160;2024-03-22T00:52:41;42.23;;;21.67;;
84889;SDS011;75153;52.222;5.160;2024-03-22T00:55:07;50.25;;;22.92;;
84889;SDS011;75153;52.222;5.160;2024-03-22T00:57:32;39.50;;;19.67;;
84889;SDS011;75153;52.222;5.160;2024-03-22T00:59:58;37.17;;;18.07;;
84889;SDS011;75153;52.222;5.160;2024-03-22T01:02:23;37.47;;;18.25;;
84889;SDS011;75153;52.222;5.160;2024-03-22T01:04:48;36.50;;;18.07;;
84889;SDS011;75153;52.222;5.160;2024-03-22T01:07:14;38.67;;;19.27;;
84889;SDS011;75153;52.222;5.160;2024-03-22T01:09:39;45.27;;;21.83;;
84889;SDS011;75153;52.222;5.160;2024-03-22T01:12:05;56.40;;;25.97;;
84889;SDS011;75153;52.222;5.160;2024-03-22T01:14:30;42.72;;;21.00;;
84889;SDS011;75153;52.222;5.160;2024-03-22T01:16:56;43.30;;;20.13;;
84889;SDS011;75153;52.222;5.160;2024-03-22T01:19:21;42.77;;;19.63;;
84889;SDS011;75153;52.222;5.160;2024-03-22T01:21:48;46.53;;;21.58;;
84889;SDS011;75153;52.222;5.160;2024-03-22T01:24:13;41.85;;;20.00;;
84889;SDS011;75153;52.222;5.160;2024-03-22T01:26:39;49.83;;;22.57;;
84889;SDS011;75153;52.222;5.160;2024-03-22T01:29:04;43.40;;;20.50;;
84889;SDS011;75153;52.222;5.160;2024-03-22T01:31:29;50.87;;;23.80;;
84889;SDS011;75153;52.222;5.160;2024-03-22T01:33:55;54.97;;;23.57;;
84889;SDS011;75153;52.222;5.160;2024-03-22T01:36:20;42.55;;;20.27;;
84889;SDS011;75153;52.222;5.160;2024-03-22T01:38:45;54.28;;;23.42;;
84889;SDS011;75153;52.222;5.160;2024-03-22T01:41:11;42.80;;;19.80;;
84889;SDS011;75153;52.222;5.160;2024-03-22T01:43:36;57.57;;;24.93;;
84889;SDS011;75153;52.222;5.160;2024-03-22T01:46:02;44.50;;;20.70;;
84889;SDS011;75153;52.222;5.160;2024-03-22T01:48:27;55.63;;;24.67;;
84889;SDS011;75153;52.222;5.160;2024-03-22T01:50:53;42.33;;;20.08;;
84889;SDS011;75153;52.222;5.160;2024-03-22T01:53:18;51.47;;;23.77;;
84889;SDS011;75153;52.222;5.160;2024-03-22T01:55:44;50.40;;;23.25;;
84889;SDS011;75153;52.222;5.160;2024-03-22T01:58:09;59.97;;;26.87;;
84889;SDS011;75153;52.222;5.160;2024-03-22T02:00:37;48.70;;;22.07;;
84889;SDS011;75153;52.222;5.160;2024-03-22T02:03:03;51.35;;;21.00;;
84889;SDS011;75153;52.222;5.160;2024-03-22T02:05:28;50.33;;;23.03;;
84889;SDS011;75153;52.222;5.160;2024-03-22T02:07:54;49.78;;;21.73;;
84889;SDS011;75153;52.222;5.160;2024-03-22T02:10:19;52.85;;;22.42;;
84889;SDS011;75153;52.222;5.160;2024-03-22T02:12:45;49.13;;;21.43;;
84889;SDS011;75153;52.222;5.160;2024-03-22T02:15:10;45.97;;;20.42;;
84889;SDS011;75153;52.222;5.160;2024-03-22T02:17:36;56.83;;;25.07;;
84889;SDS011;75153;52.222;5.160;2024-03-22T02:20:01;51.97;;;21.87;;
84889;SDS011;75153;52.222;5.160;2024-03-22T02:22:29;56.03;;;24.13;;
84889;SDS011;75153;52.222;5.160;2024-03-22T02:24:54;57.03;;;24.53;;
84889;SDS011;75153;52.222;5.160;2024-03-22T02:27:20;66.63;;;26.97;;
84889;SDS011;75153;52.222;5.160;2024-03-22T02:29:45;66.43;;;26.10;;
84889;SDS011;75153;52.222;5.160;2024-03-22T02:32:11;64.97;;;26.88;;
84889;SDS011;75153;52.222;5.160;2024-03-22T02:34:37;58.30;;;23.67;;
84889;SDS011;75153;52.222;5.160;2024-03-22T02:37:02;55.97;;;23.17;;
84889;SDS011;75153;52.222;5.160;2024-03-22T02:39:28;60.60;;;24.73;;
84889;SDS011;75153;52.222;5.160;2024-03-22T02:41:53;56.47;;;24.63;;
84889;SDS011;75153;52.222;5.160;2024-03-22T02:44:19;51.17;;;21.48;;
84889;SDS011;75153;52.222;5.160;2024-03-22T02:46:44;52.43;;;22.80;;
84889;SDS011;75153;52.222;5.160;2024-03-22T02:49:10;59.63;;;27.10;;
84889;SDS011;75153;52.222;5.160;2024-03-22T02:51:35;57.00;;;22.90;;
84889;SDS011;75153;52.222;5.160;2024-03-22T02:54:01;57.17;;;22.98;;
84889;SDS011;75153;52.222;5.160;2024-03-22T02:56:27;44.33;;;19.92;;
84889;SDS011;75153;52.222;5.160;2024-03-22T02:58:52;49.45;;;20.88;;
84889;SDS011;75153;52.222;5.160;2024-03-22T03:01:18;49.40;;;20.33;;
84889;SDS011;75153;52.222;5.160;2024-03-22T03:03:43;44.53;;;19.27;;
84889;SDS011;75153;52.222;5.160;2024-03-22T03:06:09;48.63;;;19.17;;
84889;SDS011;75153;52.222;5.160;2024-03-22T03:08:35;41.93;;;17.77;;
84889;SDS011;75153;52.222;5.160;2024-03-22T03:11:00;48.90;;;20.47;;
84889;SDS011;75153;52.222;5.160;2024-03-22T03:13:25;44.00;;;18.52;;
84889;SDS011;75153;52.222;5.160;2024-03-22T03:15:51;43.63;;;18.47;;
84889;SDS011;75153;52.222;5.160;2024-03-22T03:18:16;44.47;;;17.53;;
84889;SDS011;75153;52.222;5.160;2024-03-22T03:20:43;50.28;;;19.88;;
84889;SDS011;75153;52.222;5.160;2024-03-22T03:23:08;51.53;;;21.60;;
84889;SDS011;75153;52.222;5.160;2024-03-22T03:25:33;55.23;;;23.80;;
84889;SDS011;75153;52.222;5.160;2024-03-22T03:27:59;61.17;;;25.48;;
84889;SDS011;75153;52.222;5.160;2024-03-22T03:30:24;42.27;;;19.90;;
84889;SDS011;75153;52.222;5.160;2024-03-22T03:32:49;42.63;;;18.80;;
84889;SDS011;75153;52.222;5.160;2024-03-22T03:35:15;39.30;;;18.70;;
84889;SDS011;75153;52.222;5.160;2024-03-22T03:37:40;40.50;;;18.83;;
84889;SDS011;75153;52.222;5.160;2024-03-22T03:40:06;40.60;;;18.70;;
84889;SDS011;75153;52.222;5.160;2024-03-22T03:42:32;35.20;;;17.88;;
84889;SDS011;75153;52.222;5.160;2024-03-22T03:44:57;52.17;;;23.30;;
84889;SDS011;75153;52.222;5.160;2024-03-22T03:47:22;44.15;;;19.30;;
84889;SDS011;75153;52.222;5.160;2024-03-22T03:49:48;47.78;;;21.00;;
84889;SDS011;75153;52.222;5.160;2024-03-22T03:52:13;43.83;;;20.80;;
84889;SDS011;75153;52.222;5.160;2024-03-22T03:54:39;54.20;;;23.17;;
84889;SDS011;75153;52.222;5.160;2024-03-22T03:57:04;61.17;;;25.53;;
84889;SDS011;75153;52.222;5.160;2024-03-22T03:59:29;51.37;;;22.40;;
84889;SDS011;75153;52.222;5.160;2024-03-22T04:01:55;51.95;;;23.20;;
84889;SDS011;75153;52.222;5.160;2024-03-22T04:04:20;43.83;;;19.77;;
84889;SDS011;75153;52.222;5.160;2024-03-22T04:06:46;50.73;;;21.67;;
84889;SDS011;75153;52.222;5.160;2024-03-22T04:09:11;39.30;;;19.00;;
84889;SDS011;75153;52.222;5.160;2024-03-22T04:11:36;42.77;;;18.83;;
84889;SDS011;75153;52.222;5.160;2024-03-22T04:14:02;47.00;;;21.42;;
84889;SDS011;75153;52.222;5.160;2024-03-22T04:16:28;44.72;;;20.27;;
84889;SDS011;75153;52.222;5.160;2024-03-22T04:18:53;36.07;;;17.07;;
84889;SDS011;75153;52.222;5.160;2024-03-22T04:21:19;44.03;;;19.90;;
84889;SDS011;75153;52.222;5.160;2024-03-22T04:23:44;44.50;;;19.83;;
84889;SDS011;75153;52.222;5.160;2024-03-22T04:26:09;45.17;;;18.27;;
84889;SDS011;75153;52.222;5.160;2024-03-22T04:28:35;37.07;;;16.70;;
84889;SDS011;75153;52.222;5.160;2024-03-22T04:31:02;39.85;;;18.63;;
84889;SDS011;75153;52.222;5.160;2024-03-22T04:33:29;37.80;;;18.13;;
84889;SDS011;75153;52.222;5.160;2024-03-22T04:35:55;35.63;;;15.20;;
84889;SDS011;75153;52.222;5.160;2024-03-22T04:38:21;36.30;;;14.77;;
84889;SDS011;75153;52.222;5.160;2024-03-22T04:40:47;41.67;;;16.85;;
84889;SDS011;75153;52.222;5.160;2024-03-22T04:43:14;36.10;;;15.77;;
84889;SDS011;75153;52.222;5.160;2024-03-22T04:45:42;39.95;;;15.63;;
84889;SDS011;75153;52.222;5.160;2024-03-22T04:48:08;36.28;;;16.63;;
84889;SDS011;75153;52.222;5.160;2024-03-22T04:50:34;29.83;;;14.23;;
84889;SDS011;75153;52.222;5.160;2024-03-22T04:53:00;31.77;;;14.00;;
84889;SDS011;75153;52.222;5.160;2024-03-22T04:55:26;32.05;;;13.63;;
84889;SDS011;75153;52.222;5.160;2024-03-22T04:57:52;32.83;;;16.03;;
84889;SDS011;75153;52.222;5.160;2024-03-22T05:00:17;33.08;;;14.82;;
84889;SDS011;75153;52.222;5.160;2024-03-22T05:02:43;36.88;;;14.55;;
84889;SDS011;75153;52.222;5.160;2024-03-22T05:05:09;35.93;;;14.87;;
84889;SDS011;75153;52.222;5.160;2024-03-22T05:07:35;29.63;;;13.73;;
84889;SDS011;75153;52.222;5.160;2024-03-22T05:10:01;30.83;;;13.57;;
84889;SDS011;75153;52.222;5.160;2024-03-22T05:12:28;33.80;;;13.95;;
84889;SDS011;75153;52.222;5.160;2024-03-22T05:14:54;36.73;;;14.13;;
84889;SDS011;75153;52.222;5.160;2024-03-22T05:17:20;31.63;;;13.82;;
84889;SDS011;75153;52.222;5.160;2024-03-22T05:19:45;33.53;;;13.67;;
84889;SDS011;75153;52.222;5.160;2024-03-22T05:22:10;30.30;;;12.13;;
84889;SDS011;75153;52.222;5.160;2024-03-22T05:24:36;35.20;;;13.70;;
84889;SDS011;75153;52.222;5.160;2024-03-22T05:27:01;33.63;;;14.10;;
84889;SDS011;75153;52.222;5.160;2024-03-22T05:29:26;35.17;;;13.87;;
84889;SDS011;75153;52.222;5.160;2024-03-22T05:31:52;36.30;;;13.77;;
84889;SDS011;75153;52.222;5.160;2024-03-22T05:34:18;25.53;;;12.60;;
84889;SDS011;75153;52.222;5.160;2024-03-22T05:36:44;30.15;;;12.18;;
84889;SDS011;75153;52.222;5.160;2024-03-22T05:39:10;26.40;;;10.77;;
84889;SDS011;75153;52.222;5.160;2024-03-22T05:41:38;26.42;;;10.38;;
84889;SDS011;75153;52.222;5.160;2024-03-22T05:44:04;27.60;;;11.90;;
84889;SDS011;75153;52.222;5.160;2024-03-22T05:46:30;33.83;;;12.80;;
84889;SDS011;75153;52.222;5.160;2024-03-22T05:48:56;29.95;;;13.07;;
84889;SDS011;75153;52.222;5.160;2024-03-22T05:51:22;31.13;;;11.40;;
84889;SDS011;75153;52.222;5.160;2024-03-22T05:53:47;38.07;;;13.93;;
84889;SDS011;75153;52.222;5.160;2024-03-22T05:56:13;31.95;;;13.43;;
84889;SDS011;75153;52.222;5.160;2024-03-22T05:58:39;28.85;;;11.48;;
84889;SDS011;75153;52.222;5.160;2024-03-22T06:01:04;27.27;;;11.57;;
84889;SDS011;75153;52.222;5.160;2024-03-22T06:03:30;27.73;;;11.03;;
84889;SDS011;75153;52.222;5.160;2024-03-22T06:05:55;30.27;;;12.93;;
84889;SDS011;75153;52.222;5.160;2024-03-22T06:08:24;28.40;;;12.05;;
84889;SDS011;75153;52.222;5.160;2024-03-22T06:10:50;30.65;;;13.02;;
84889;SDS011;75153;52.222;5.160;2024-03-22T06:13:17;35.78;;;13.00;;
84889;SDS011;75153;52.222;5.160;2024-03-22T06:15:43;33.37;;;12.83;;
84889;SDS011;75153;52.222;5.160;2024-03-22T06:18:10;32.55;;;11.90;;
84889;SDS011;75153;52.222;5.160;2024-03-22T06:20:36;28.07;;;11.23;;
84889;SDS011;75153;52.222;5.160;2024-03-22T06:23:02;26.45;;;11.77;;
84889;SDS011;75153;52.222;5.160;2024-03-22T06:25:27;25.10;;;10.27;;
84889;SDS011;75153;52.222;5.160;2024-03-22T06:27:52;28.80;;;10.13;;
84889;SDS011;75153;52.222;5.160;2024-03-22T06:30:18;28.37;;;10.63;;
84889;SDS011;75153;52.222;5.160;2024-03-22T06:32:43;25.57;;;10.37;;
84889;SDS011;75153;52.222;5.160;2024-03-22T06:35:08;24.23;;;9.60;;
84889;SDS011;75153;52.222;5.160;2024-03-22T06:37:34;28.77;;;10.85;;
84889;SDS011;75153;52.222;5.160;2024-03-22T06:39:59;25.67;;;9.70;;
84889;SDS011;75153;52.222;5.160;2024-03-22T06:42:24;29.73;;;10.97;;
84889;SDS011;75153;52.222;5.160;2024-03-22T06:44:51;20.80;;;9.50;;
84889;SDS011;75153;52.222;5.160;2024-03-22T06:47:17;22.97;;;8.90;;
84889;SDS011;75153;52.222;5.160;2024-03-22T06:49:42;27.83;;;10.40;;
84889;SDS011;75153;52.222;5.160;2024-03-22T06:52:07;26.00;;;10.47;;
84889;SDS011;75153;52.222;5.160;2024-03-22T06:54:33;26.43;;;10.93;;
84889;SDS011;75153;52.222;5.160;2024-03-22T06:56:58;27.50;;;11.17;;
84889;SDS011;75153;52.222;5.160;2024-03-22T06:59:23;25.30;;;10.20;;
84889;SDS011;75153;52.222;5.160;2024-03-22T07:01:49;23.98;;;9.63;;
84889;SDS011;75153;52.222;5.160;2024-03-22T07:04:14;27.97;;;10.20;;
84889;SDS011;75153;52.222;5.160;2024-03-22T07:06:39;25.00;;;10.43;;
84889;SDS011;75153;52.222;5.160;2024-03-22T07:09:07;27.60;;;11.40;;
84889;SDS011;75153;52.222;5.160;2024-03-22T07:11:32;27.10;;;10.73;;
84889;SDS011;75153;52.222;5.160;2024-03-22T07:13:58;28.25;;;11.18;;
84889;SDS011;75153;52.222;5.160;2024-03-22T07:16:23;24.73;;;10.18;;
84889;SDS011;75153;52.222;5.160;2024-03-22T07:18:49;33.53;;;11.77;;
84889;SDS011;75153;52.222;5.160;2024-03-22T07:21:14;35.03;;;13.20;;
84889;SDS011;75153;52.222;5.160;2024-03-22T07:23:39;38.33;;;14.97;;
84889;SDS011;75153;52.222;5.160;2024-03-22T07:26:05;33.80;;;12.20;;
84889;SDS011;75153;52.222;5.160;2024-03-22T07:28:32;34.42;;;13.70;;
84889;SDS011;75153;52.222;5.160;2024-03-22T07:30:59;27.25;;;11.30;;
84889;SDS011;75153;52.222;5.160;2024-03-22T07:33:24;32.40;;;12.53;;
84889;SDS011;75153;52.222;5.160;2024-03-22T07:35:49;23.97;;;10.77;;
84889;SDS011;75153;52.222;5.160;2024-03-22T07:38:15;29.20;;;11.70;;
84889;SDS011;75153;52.222;5.160;2024-03-22T07:40:40;28.35;;;11.65;;
84889;SDS011;75153;52.222;5.160;2024-03-22T07:43:05;37.90;;;11.97;;
84889;SDS011;75153;52.222;5.160;2024-03-22T07:45:35;29.73;;;11.17;;
84889;SDS011;75153;52.222;5.160;2024-03-22T07:48:00;28.23;;;10.38;;
84889;SDS011;75153;52.222;5.160;2024-03-22T07:50:26;31.40;;;11.20;;
84889;SDS011;75153;52.222;5.160;2024-03-22T07:52:52;25.10;;;10.30;;
84889;SDS011;75153;52.222;5.160;2024-03-22T07:55:17;25.00;;;9.33;;
84889;SDS011;75153;52.222;5.160;2024-03-22T07:57:43;28.58;;;9.88;;
84889;SDS011;75153;52.222;5.160;2024-03-22T08:00:08;24.07;;;9.57;;
84889;SDS011;75153;52.222;5.160;2024-03-22T08:02:37;32.55;;;11.32;;
84889;SDS011;75153;52.222;5.160;2024-03-22T08:05:03;36.50;;;11.43;;
84889;SDS011;75153;52.222;5.160;2024-03-22T08:07:29;22.02;;;9.68;;
84889;SDS011;75153;52.222;5.160;2024-03-22T08:09:54;32.65;;;10.20;;
84889;SDS011;75153;52.222;5.160;2024-03-22T08:12:20;26.47;;;10.40;;
84889;SDS011;75153;52.222;5.160;2024-03-22T08:14:46;24.05;;;9.38;;
84889;SDS011;75153;52.222;5.160;2024-03-22T08:17:12;30.53;;;11.03;;
84889;SDS011;75153;52.222;5.160;2024-03-22T08:19:37;29.33;;;10.55;;
84889;SDS011;75153;52.222;5.160;2024-03-22T08:22:03;21.90;;;8.60;;
84889;SDS011;75153;52.222;5.160;2024-03-22T08:24:29;26.90;;;9.93;;
84889;SDS011;75153;52.222;5.160;2024-03-22T08:26:54;29.17;;;11.23;;
84889;SDS011;75153;52.222;5.160;2024-03-22T08:29:20;27.40;;;9.90;;
84889;SDS011;75153;52.222;5.160;2024-03-22T08:31:46;22.65;;;10.10;;
84889;SDS011;75153;52.222;5.160;2024-03-22T08:34:12;29.20;;;10.27;;
84889;SDS011;75153;52.222;5.160;2024-03-22T08:36:37;23.15;;;8.38;;
84889;SDS011;75153;52.222;5.160;2024-03-22T08:39:03;25.67;;;10.00;;
84889;SDS011;75153;52.222;5.160;2024-03-22T08:41:28;24.83;;;10.17;;
84889;SDS011;75153;52.222;5.160;2024-03-22T08:43:56;23.67;;;8.48;;
84889;SDS011;75153;52.222;5.160;2024-03-22T08:46:22;21.33;;;9.37;;
84889;SDS011;75153;52.222;5.160;2024-03-22T08:48:49;29.58;;;11.90;;
84889;SDS011;75153;52.222;5.160;2024-03-22T08:51:15;24.13;;;9.87;;
84889;SDS011;75153;52.222;5.160;2024-03-22T08:53:40;26.60;;;9.40;;
84889;SDS011;75153;52.222;5.160;2024-03-22T08:56:06;19.37;;;8.47;;
84889;SDS011;75153;52.222;5.160;2024-03-22T08:58:32;29.80;;;11.70;;
84889;SDS011;75153;52.222;5.160;2024-03-22T09:00:58;21.50;;;8.97;;
84889;SDS011;75153;52.222;5.160;2024-03-22T09:03:23;23.33;;;8.90;;
84889;SDS011;75153;52.222;5.160;2024-03-22T09:05:52;24.00;;;9.33;;
84889;SDS011;75153;52.222;5.160;2024-03-22T09:08:18;23.10;;;8.93;;
84889;SDS011;75153;52.222;5.160;2024-03-22T09:10:44;22.75;;;10.50;;
84889;SDS011;75153;52.222;5.160;2024-03-22T09:13:10;22.90;;;9.90;;
84889;SDS011;75153;52.222;5.160;2024-03-22T09:15:37;19.55;;;8.38;;
84889;SDS011;75153;52.222;5.160;2024-03-22T09:18:03;32.97;;;12.40;;
84889;SDS011;75153;52.222;5.160;2024-03-22T09:20:29;25.67;;;10.05;;
84889;SDS011;75153;52.222;5.160;2024-03-22T09:22:54;21.43;;;8.80;;
84889;SDS011;75153;52.222;5.160;2024-03-22T09:25:20;24.25;;;10.68;;
84889;SDS011;75153;52.222;5.160;2024-03-22T09:27:46;29.47;;;11.07;;
84889;SDS011;75153;52.222;5.160;2024-03-22T09:30:12;22.67;;;10.10;;
84889;SDS011;75153;52.222;5.160;2024-03-22T09:32:37;21.67;;;9.60;;
84889;SDS011;75153;52.222;5.160;2024-03-22T09:35:03;26.42;;;11.45;;
84889;SDS011;75153;52.222;5.160;2024-03-22T09:37:29;19.03;;;8.50;;
84889;SDS011;75153;52.222;5.160;2024-03-22T09:39:54;19.23;;;8.43;;
84889;SDS011;75153;52.222;5.160;2024-03-22T09:42:19;16.77;;;9.02;;
84889;SDS011;75153;52.222;5.160;2024-03-22T09:44:48;18.27;;;8.60;;
84889;SDS011;75153;52.222;5.160;2024-03-22T09:47:17;18.27;;;8.82;;
84889;SDS011;75153;52.222;5.160;2024-03-22T09:49:44;20.33;;;8.80;;
84889;SDS011;75153;52.222;5.160;2024-03-22T09:52:15;21.63;;;9.82;;
84889;SDS011;75153;52.222;5.160;2024-03-22T09:54:44;25.70;;;11.27;;
84889;SDS011;75153;52.222;5.160;2024-03-22T09:57:11;21.63;;;10.23;;
84889;SDS011;75153;52.222;5.160;2024-03-22T09:59:40;19.08;;;8.60;;
84889;SDS011;75153;52.222;5.160;2024-03-22T10:02:08;24.15;;;10.82;;
84889;SDS011;75153;52.222;5.160;2024-03-22T10:04:35;23.43;;;10.73;;
84889;SDS011;75153;52.222;5.160;2024-03-22T10:07:01;17.05;;;9.10;;
84889;SDS011;75153;52.222;5.160;2024-03-22T10:09:28;17.60;;;8.50;;
84889;SDS011;75153;52.222;5.160;2024-03-22T10:11:55;21.75;;;9.27;;
84889;SDS011;75153;52.222;5.160;2024-03-22T10:14:21;16.20;;;8.27;;
84889;SDS011;75153;52.222;5.160;2024-03-22T10:16:46;17.40;;;7.77;;
84889;SDS011;75153;52.222;5.160;2024-03-22T10:19:12;17.77;;;8.05;;
84889;SDS011;75153;52.222;5.160;2024-03-22T10:21:37;17.13;;;7.90;;
84889;SDS011;75153;52.222;5.160;2024-03-22T10:24:02;24.53;;;10.80;;
84889;SDS011;75153;52.222;5.160;2024-03-22T10:26:29;28.98;;;11.35;;
84889;SDS011;75153;52.222;5.160;2024-03-22T10:28:54;28.37;;;10.93;;
84889;SDS011;75153;52.222;5.160;2024-03-22T10:31:19;20.20;;;9.63;;
84889;SDS011;75153;52.222;5.160;2024-03-22T10:33:45;15.07;;;7.32;;
84889;SDS011;75153;52.222;5.160;2024-03-22T10:36:11;13.77;;;7.47;;
84889;SDS011;75153;52.222;5.160;2024-03-22T10:38:38;15.27;;;7.97;;
84889;SDS011;75153;52.222;5.160;2024-03-22T10:41:04;18.90;;;8.65;;
84889;SDS011;75153;52.222;5.160;2024-03-22T10:43:30;12.82;;;6.72;;
84889;SDS011;75153;52.222;5.160;2024-03-22T10:46:01;21.27;;;9.30;;
84889;SDS011;75153;52.222;5.160;2024-03-22T10:48:31;14.73;;;8.30;;
84889;SDS011;75153;52.222;5.160;2024-03-22T10:51:00;17.70;;;7.97;;
84889;SDS011;75153;52.222;5.160;2024-03-22T10:53:27;18.48;;;7.78;;
84889;SDS011;75153;52.222;5.160;2024-03-22T10:55:56;16.00;;;7.70;;
84889;SDS011;75153;52.222;5.160;2024-03-22T10:58:27;17.55;;;7.63;;
84889;SDS011;75153;52.222;5.160;2024-03-22T11:00:53;19.57;;;7.90;;
84889;SDS011;75153;52.222;5.160;2024-03-22T11:03:20;13.93;;;6.90;;
84889;SDS011;75153;52.222;5.160;2024-03-22T11:05:57;15.23;;;7.20;;
84889;SDS011;75153;52.222;5.160;2024-03-22T11:08:23;19.23;;;8.70;;
84889;SDS011;75153;52.222;5.160;2024-03-22T11:10:50;13.52;;;7.13;;
84889;SDS011;75153;52.222;5.160;2024-03-22T11:13:16;18.73;;;8.27;;
84889;SDS011;75153;52.222;5.160;2024-03-22T11:15:42;17.00;;;8.18;;
84889;SDS011;75153;52.222;5.160;2024-03-22T11:18:08;15.82;;;7.80;;
84889;SDS011;75153;52.222;5.160;2024-03-22T11:20:37;15.65;;;8.45;;
84889;SDS011;75153;52.222;5.160;2024-03-22T11:23:06;14.23;;;7.35;;
84889;SDS011;75153;52.222;5.160;2024-03-22T11:25:32;12.48;;;6.68;;
84889;SDS011;75153;52.222;5.160;2024-03-22T11:27:58;12.70;;;7.28;;
84889;SDS011;75153;52.222;5.160;2024-03-22T11:30:26;14.00;;;7.55;;
84889;SDS011;75153;52.222;5.160;2024-03-22T11:32:52;9.97;;;6.00;;
84889;SDS011;75153;52.222;5.160;2024-03-22T11:35:18;12.27;;;6.38;;
84889;SDS011;75153;52.222;5.160;2024-03-22T11:37:44;12.55;;;6.43;;
84889;SDS011;75153;52.222;5.160;2024-03-22T11:40:09;14.37;;;8.00;;
84889;SDS011;75153;52.222;5.160;2024-03-22T11:42:46;14.82;;;7.72;;
84889;SDS011;75153;52.222;5.160;2024-03-22T11:45:15;16.20;;;8.20;;
84889;SDS011;75153;52.222;5.160;2024-03-22T11:47:42;10.95;;;6.70;;
84889;SDS011;75153;52.222;5.160;2024-03-22T11:50:08;17.07;;;8.20;;
84889;SDS011;75153;52.222;5.160;2024-03-22T11:52:35;13.75;;;7.10;;
84889;SDS011;75153;52.222;5.160;2024-03-22T11:55:00;11.70;;;7.00;;
84889;SDS011;75153;52.222;5.160;2024-03-22T11:57:26;17.83;;;9.05;;
84889;SDS011;75153;52.222;5.160;2024-03-22T11:59:51;18.50;;;8.40;;
84889;SDS011;75153;52.222;5.160;2024-03-22T12:02:17;21.07;;;10.07;;
84889;SDS011;75153;52.222;5.160;2024-03-22T12:04:43;19.77;;;9.77;;
84889;SDS011;75153;52.222;5.160;2024-03-22T12:07:12;20.27;;;10.43;;
84889;SDS011;75153;52.222;5.160;2024-03-22T12:09:38;17.10;;;9.88;;
84889;SDS011;75153;52.222;5.160;2024-03-22T12:12:07;16.97;;;8.33;;
84889;SDS011;75153;52.222;5.160;2024-03-22T12:14:34;22.23;;;10.50;;
84889;SDS011;75153;52.222;5.160;2024-03-22T12:17:01;19.67;;;9.15;;
84889;SDS011;75153;52.222;5.160;2024-03-22T12:19:30;18.85;;;9.70;;
84889;SDS011;75153;52.222;5.160;2024-03-22T12:21:56;23.07;;;11.33;;
84889;SDS011;75153;52.222;5.160;2024-03-22T12:24:22;24.60;;;11.20;;
84889;SDS011;75153;52.222;5.160;2024-03-22T12:26:48;27.35;;;11.07;;
84889;SDS011;75153;52.222;5.160;2024-03-22T12:29:15;23.80;;;9.23;;
84889;SDS011;75153;52.222;5.160;2024-03-22T12:31:41;21.25;;;9.13;;
84889;SDS011;75153;52.222;5.160;2024-03-22T12:34:06;20.90;;;8.75;;
84889;SDS011;75153;52.222;5.160;2024-03-22T12:36:32;18.53;;;8.03;;
84889;SDS011;75153;52.222;5.160;2024-03-22T12:38:57;18.90;;;8.80;;
84889;SDS011;75153;52.222;5.160;2024-03-22T12:41:22;26.27;;;9.80;;
84889;SDS011;75153;52.222;5.160;2024-03-22T12:43:48;24.73;;;10.43;;
84889;SDS011;75153;52.222;5.160;2024-03-22T12:46:13;18.50;;;8.07;;
84889;SDS011;75153;52.222;5.160;2024-03-22T12:48:39;18.33;;;8.30;;
84889;SDS011;75153;52.222;5.160;2024-03-22T12:51:04;26.87;;;10.17;;
84889;SDS011;75153;52.222;5.160;2024-03-22T12:53:30;15.03;;;8.07;;
84889;SDS011;75153;52.222;5.160;2024-03-22T12:55:55;16.83;;;8.10;;
84889;SDS011;75153;52.222;5.160;2024-03-22T12:58:20;25.25;;;11.15;;
84889;SDS011;75153;52.222;5.160;2024-03-22T13:00:46;15.50;;;8.33;;
84889;SDS011;75153;52.222;5.160;2024-03-22T13:03:11;17.77;;;8.77;;
84889;SDS011;75153;52.222;5.160;2024-03-22T13:05:38;21.38;;;8.95;;
84889;SDS011;75153;52.222;5.160;2024-03-22T13:08:03;23.50;;;10.10;;
84889;SDS011;75153;52.222;5.160;2024-03-22T13:10:29;26.50;;;11.10;;
84889;SDS011;75153;52.222;5.160;2024-03-22T13:12:54;18.05;;;8.73;;
84889;SDS011;75153;52.222;5.160;2024-03-22T13:15:19;16.10;;;7.80;;
84889;SDS011;75153;52.222;5.160;2024-03-22T13:17:45;27.23;;;10.03;;
84889;SDS011;75153;52.222;5.160;2024-03-22T13:20:10;22.93;;;10.87;;
84889;SDS011;75153;52.222;5.160;2024-03-22T13:22:37;22.00;;;9.73;;
84889;SDS011;75153;52.222;5.160;2024-03-22T13:25:04;20.80;;;8.70;;
84889;SDS011;75153;52.222;5.160;2024-03-22T13:27:35;24.75;;;9.68;;
84889;SDS011;75153;52.222;5.160;2024-03-22T13:30:01;17.63;;;9.20;;
84889;SDS011;75153;52.222;5.160;2024-03-22T13:32:27;19.20;;;9.43;;
84889;SDS011;75153;52.222;5.160;2024-03-22T13:34:53;17.17;;;9.00;;
84889;SDS011;75153;52.222;5.160;2024-03-22T13:37:18;20.85;;;8.75;;
84889;SDS011;75153;52.222;5.160;2024-03-22T13:39:47;16.73;;;8.02;;
84889;SDS011;75153;52.222;5.160;2024-03-22T13:42:16;16.92;;;7.85;;
84889;SDS011;75153;52.222;5.160;2024-03-22T13:44:41;16.67;;;7.50;;
84889;SDS011;75153;52.222;5.160;2024-03-22T13:47:07;14.23;;;6.72;;
84889;SDS011;75153;52.222;5.160;2024-03-22T13:49:33;14.13;;;6.47;;
84889;SDS011;75153;52.222;5.160;2024-03-22T13:51:58;15.03;;;6.80;;
84889;SDS011;75153;52.222;5.160;2024-03-22T13:54:24;15.90;;;6.85;;
84889;SDS011;75153;52.222;5.160;2024-03-22T13:56:50;16.37;;;7.00;;
84889;SDS011;75153;52.222;5.160;2024-03-22T13:59:15;13.18;;;5.80;;
84889;SDS011;75153;52.222;5.160;2024-03-22T14:01:41;14.05;;;6.25;;
84889;SDS011;75153;52.222;5.160;2024-03-22T14:04:10;16.00;;;6.10;;
84889;SDS011;75153;52.222;5.160;2024-03-22T14:06:36;13.20;;;6.32;;
84889;SDS011;75153;52.222;5.160;2024-03-22T14:09:03;13.93;;;6.43;;
84889;SDS011;75153;52.222;5.160;2024-03-22T14:11:30;14.47;;;6.27;;
84889;SDS011;75153;52.222;5.160;2024-03-22T14:13:59;13.52;;;6.25;;
84889;SDS011;75153;52.222;5.160;2024-03-22T14:16:24;21.17;;;6.95;;
84889;SDS011;75153;52.222;5.160;2024-03-22T14:18:50;13.00;;;5.90;;